sensor_id;sensor_type;location;lat;lon;timestamp;P1;durP1;ratioP1;P2;durP2;ratioP2
26474;SDS011;14161;52.270;10.334;2023-11-22T00:00:58;2.83;;;1.95;;
26474;SDS011;14161;52.270;10.334;2023-11-22T00:03:24;3.13;;;2.33;;
26474;SDS011;14161;52.270;10.334;2023-11-22T00:05:50;2.40;;;2.13;;
26474;SDS011;14161;52.270;10.334;2023-11-22T00:08:16;3.17;;;2.28;;
26474;SDS011;14161;52.270;10.334;2023-11-22T00:10:47;3.22;;;2.42;;
26474;SDS011;14161;52.270;10.334;2023-11-22T00:13:13;2.70;;;2.33;;
26474;SDS011;14161;52.270;10.334;2023-11-22T00:15:39;2.50;;;2.03;;
26474;SDS011;14161;52.270;10.334;2023-11-22T00:18:08;3.65;;;2.42;;
26474;SDS011;14161;52.270;10.334;2023-11-22T00:20:33;2.60;;;1.98;;
26474;SDS011;14161;52.270;10.334;2023-11-22T00:22:59;2.90;;;2.10;;
26474;SDS011;14161;52.270;10.334;2023-11-22T00:25:25;2.55;;;2.00;;
26474;SDS011;14161;52.270;10.334;2023-11-22T00:27:50;3.20;;;2.30;;
26474;SDS011;14161;52.270;10.334;2023-11-22T00:30:18;3.40;;;2.42;;
26474;SDS011;14161;52.270;10.334;2023-11-22T00:32:44;2.85;;;2.03;;
26474;SDS011;14161;52.270;10.334;2023-11-22T00:35:10;2.72;;;2.00;;
26474;SDS011;14161;52.270;10.334;2023-11-22T00:37:35;2.88;;;2.00;;
26474;SDS011;14161;52.270;10.334;2023-11-22T00:40:02;3.10;;;2.20;;
26474;SDS011;14161;52.270;10.334;2023-11-22T00:42:36;2.78;;;2.10;;
26474;SDS011;14161;52.270;10.334;2023-11-22T00:45:04;3.35;;;1.90;;
26474;SDS011;14161;52.270;10.334;2023-11-22T00:47:34;2.85;;;2.03;;
26474;SDS011;14161;52.270;10.334;2023-11-22T00:50:00;3.60;;;2.33;;
26474;SDS011;14161;52.270;10.334;2023-11-22T00:52:27;2.72;;;1.83;;
26474;SDS011;14161;52.270;10.334;2023-11-22T00:54:53;2.47;;;1.83;;
26474;SDS011;14161;52.270;10.334;2023-11-22T00:57:19;2.63;;;2.00;;
26474;SDS011;14161;52.270;10.334;2023-11-22T00:59:46;5.70;;;2.20;;
26474;SDS011;14161;52.270;10.334;2023-11-22T01:02:11;3.30;;;2.00;;
26474;SDS011;14161;52.270;10.334;2023-11-22T01:04:37;4.80;;;2.15;;
26474;SDS011;14161;52.270;10.334;2023-11-22T01:07:03;3.85;;;2.10;;
26474;SDS011;14161;52.270;10.334;2023-11-22T01:09:35;3.13;;;1.75;;
26474;SDS011;14161;52.270;10.334;2023-11-22T01:12:01;2.70;;;1.85;;
26474;SDS011;14161;52.270;10.334;2023-11-22T01:14:29;2.50;;;1.90;;
26474;SDS011;14161;52.270;10.334;2023-11-22T01:16:55;3.10;;;2.00;;
26474;SDS011;14161;52.270;10.334;2023-11-22T01:19:21;2.70;;;2.10;;
26474;SDS011;14161;52.270;10.334;2023-11-22T01:21:46;2.67;;;1.98;;
26474;SDS011;14161;52.270;10.334;2023-11-22T01:24:12;1.95;;;1.60;;
26474;SDS011;14161;52.270;10.334;2023-11-22T01:26:38;3.45;;;1.98;;
26474;SDS011;14161;52.270;10.334;2023-11-22T01:29:04;3.60;;;1.75;;
26474;SDS011;14161;52.270;10.334;2023-11-22T01:31:30;3.08;;;1.70;;
26474;SDS011;14161;52.270;10.334;2023-11-22T01:33:58;3.50;;;2.05;;
26474;SDS011;14161;52.270;10.334;2023-11-22T01:36:27;2.72;;;2.00;;
26474;SDS011;14161;52.270;10.334;2023-11-22T01:38:53;2.47;;;2.00;;
26474;SDS011;14161;52.270;10.334;2023-11-22T01:41:21;4.05;;;2.20;;
26474;SDS011;14161;52.270;10.334;2023-11-22T01:43:46;2.65;;;2.13;;
26474;SDS011;14161;52.270;10.334;2023-11-22T01:46:21;4.07;;;2.03;;
26474;SDS011;14161;52.270;10.334;2023-11-22T01:48:50;3.22;;;1.70;;
26474;SDS011;14161;52.270;10.334;2023-11-22T01:51:23;2.63;;;1.90;;
26474;SDS011;14161;52.270;10.334;2023-11-22T01:53:51;3.47;;;2.05;;
26474;SDS011;14161;52.270;10.334;2023-11-22T01:56:25;2.90;;;2.00;;
26474;SDS011;14161;52.270;10.334;2023-11-22T01:58:57;3.90;;;1.95;;
26474;SDS011;14161;52.270;10.334;2023-11-22T02:01:25;3.03;;;2.00;;
26474;SDS011;14161;52.270;10.334;2023-11-22T02:03:51;2.90;;;1.85;;
26474;SDS011;14161;52.270;10.334;2023-11-22T02:06:18;2.92;;;2.08;;
26474;SDS011;14161;52.270;10.334;2023-11-22T02:08:44;3.08;;;1.88;;
26474;SDS011;14161;52.270;10.334;2023-11-22T02:11:10;2.78;;;1.80;;
26474;SDS011;14161;52.270;10.334;2023-11-22T02:13:36;2.45;;;1.80;;
26474;SDS011;14161;52.270;10.334;2023-11-22T02:16:02;3.00;;;2.03;;
26474;SDS011;14161;52.270;10.334;2023-11-22T02:18:28;2.10;;;1.80;;
26474;SDS011;14161;52.270;10.334;2023-11-22T02:20:55;2.70;;;1.92;;
26474;SDS011;14161;52.270;10.334;2023-11-22T02:23:21;3.47;;;1.73;;
26474;SDS011;14161;52.270;10.334;2023-11-22T02:25:47;1.83;;;1.55;;
26474;SDS011;14161;52.270;10.334;2023-11-22T02:28:12;2.50;;;1.90;;
26474;SDS011;14161;52.270;10.334;2023-11-22T02:30:38;2.53;;;1.70;;
26474;SDS011;14161;52.270;10.334;2023-11-22T02:33:03;2.95;;;1.80;;
26474;SDS011;14161;52.270;10.334;2023-11-22T02:35:32;2.55;;;1.48;;
26474;SDS011;14161;52.270;10.334;2023-11-22T02:37:58;2.75;;;1.80;;
26474;SDS011;14161;52.270;10.334;2023-11-22T02:40:24;3.00;;;2.13;;
26474;SDS011;14161;52.270;10.334;2023-11-22T02:42:51;4.47;;;1.70;;
26474;SDS011;14161;52.270;10.334;2023-11-22T02:45:19;2.90;;;1.98;;
26474;SDS011;14161;52.270;10.334;2023-11-22T02:47:48;2.55;;;1.90;;
26474;SDS011;14161;52.270;10.334;2023-11-22T02:50:14;2.92;;;1.83;;
26474;SDS011;14161;52.270;10.334;2023-11-22T02:52:41;3.00;;;1.90;;
26474;SDS011;14161;52.270;10.334;2023-11-22T02:55:07;3.83;;;2.20;;
26474;SDS011;14161;52.270;10.334;2023-11-22T02:57:37;2.47;;;1.92;;
26474;SDS011;14161;52.270;10.334;2023-11-22T03:00:04;2.08;;;1.67;;
26474;SDS011;14161;52.270;10.334;2023-11-22T03:02:31;2.60;;;1.80;;
26474;SDS011;14161;52.270;10.334;2023-11-22T03:04:57;2.25;;;1.80;;
26474;SDS011;14161;52.270;10.334;2023-11-22T03:07:23;3.20;;;2.13;;
26474;SDS011;14161;52.270;10.334;2023-11-22T03:09:50;2.47;;;1.80;;
26474;SDS011;14161;52.270;10.334;2023-11-22T03:12:16;3.03;;;2.03;;
26474;SDS011;14161;52.270;10.334;2023-11-22T03:14:43;2.33;;;1.95;;
26474;SDS011;14161;52.270;10.334;2023-11-22T03:17:09;3.38;;;1.85;;
26474;SDS011;14161;52.270;10.334;2023-11-22T03:19:34;2.90;;;1.88;;
26474;SDS011;14161;52.270;10.334;2023-11-22T03:22:00;3.90;;;1.67;;
26474;SDS011;14161;52.270;10.334;2023-11-22T03:24:28;3.78;;;2.00;;
26474;SDS011;14161;52.270;10.334;2023-11-22T03:26:55;2.90;;;1.77;;
26474;SDS011;14161;52.270;10.334;2023-11-22T03:29:24;3.42;;;2.15;;
26474;SDS011;14161;52.270;10.334;2023-11-22T03:31:53;2.70;;;2.20;;
26474;SDS011;14161;52.270;10.334;2023-11-22T03:34:19;3.42;;;2.10;;
26474;SDS011;14161;52.270;10.334;2023-11-22T03:36:44;7.45;;;3.95;;
26474;SDS011;14161;52.270;10.334;2023-11-22T03:39:10;5.78;;;3.75;;
26474;SDS011;14161;52.270;10.334;2023-11-22T03:41:36;3.92;;;2.75;;
26474;SDS011;14161;52.270;10.334;2023-11-22T03:44:02;2.67;;;2.10;;
26474;SDS011;14161;52.270;10.334;2023-11-22T03:46:29;3.95;;;2.03;;
26474;SDS011;14161;52.270;10.334;2023-11-22T03:48:55;2.38;;;1.90;;
26474;SDS011;14161;52.270;10.334;2023-11-22T03:51:21;3.38;;;1.75;;
26474;SDS011;14161;52.270;10.334;2023-11-22T03:53:46;2.72;;;1.80;;
26474;SDS011;14161;52.270;10.334;2023-11-22T03:56:11;3.53;;;1.88;;
26474;SDS011;14161;52.270;10.334;2023-11-22T03:58:39;2.13;;;1.70;;
26474;SDS011;14161;52.270;10.334;2023-11-22T04:01:05;2.28;;;1.63;;
26474;SDS011;14161;52.270;10.334;2023-11-22T04:03:31;2.47;;;1.80;;
26474;SDS011;14161;52.270;10.334;2023-11-22T04:05:56;2.17;;;1.50;;
26474;SDS011;14161;52.270;10.334;2023-11-22T04:08:22;2.08;;;1.60;;
26474;SDS011;14161;52.270;10.334;2023-11-22T04:10:48;2.90;;;1.50;;
26474;SDS011;14161;52.270;10.334;2023-11-22T04:13:13;2.17;;;1.58;;
26474;SDS011;14161;52.270;10.334;2023-11-22T04:15:39;2.22;;;1.75;;
26474;SDS011;14161;52.270;10.334;2023-11-22T04:18:05;1.98;;;1.63;;
26474;SDS011;14161;52.270;10.334;2023-11-22T04:20:31;2.08;;;1.50;;
26474;SDS011;14161;52.270;10.334;2023-11-22T04:22:57;3.10;;;1.95;;
26474;SDS011;14161;52.270;10.334;2023-11-22T04:25:22;2.67;;;1.70;;
26474;SDS011;14161;52.270;10.334;2023-11-22T04:27:49;3.03;;;1.95;;
26474;SDS011;14161;52.270;10.334;2023-11-22T04:30:14;3.22;;;1.55;;
26474;SDS011;14161;52.270;10.334;2023-11-22T04:32:42;3.35;;;1.60;;
26474;SDS011;14161;52.270;10.334;2023-11-22T04:35:08;2.40;;;1.58;;
26474;SDS011;14161;52.270;10.334;2023-11-22T04:37:35;2.35;;;1.30;;
26474;SDS011;14161;52.270;10.334;2023-11-22T04:40:00;2.50;;;1.80;;
26474;SDS011;14161;52.270;10.334;2023-11-22T04:42:26;2.30;;;1.73;;
26474;SDS011;14161;52.270;10.334;2023-11-22T04:44:53;2.03;;;1.60;;
26474;SDS011;14161;52.270;10.334;2023-11-22T04:47:19;3.05;;;1.63;;
26474;SDS011;14161;52.270;10.334;2023-11-22T04:49:44;3.10;;;1.55;;
26474;SDS011;14161;52.270;10.334;2023-11-22T04:52:10;2.33;;;1.58;;
26474;SDS011;14161;52.270;10.334;2023-11-22T04:54:36;2.40;;;1.55;;
26474;SDS011;14161;52.270;10.334;2023-11-22T04:57:01;3.10;;;1.58;;
26474;SDS011;14161;52.270;10.334;2023-11-22T04:59:27;2.20;;;1.70;;
26474;SDS011;14161;52.270;10.334;2023-11-22T05:01:53;2.05;;;1.30;;
26474;SDS011;14161;52.270;10.334;2023-11-22T05:04:18;2.15;;;1.67;;
26474;SDS011;14161;52.270;10.334;2023-11-22T05:06:44;2.45;;;1.88;;
26474;SDS011;14161;52.270;10.334;2023-11-22T05:09:11;1.70;;;1.48;;
26474;SDS011;14161;52.270;10.334;2023-11-22T05:11:38;3.00;;;1.80;;
26474;SDS011;14161;52.270;10.334;2023-11-22T05:14:04;2.10;;;1.58;;
26474;SDS011;14161;52.270;10.334;2023-11-22T05:16:29;3.60;;;2.03;;
26474;SDS011;14161;52.270;10.334;2023-11-22T05:18:55;2.65;;;1.65;;
26474;SDS011;14161;52.270;10.334;2023-11-22T05:21:20;3.20;;;1.70;;
26474;SDS011;14161;52.270;10.334;2023-11-22T05:23:46;2.72;;;1.55;;
26474;SDS011;14161;52.270;10.334;2023-11-22T05:26:11;3.40;;;1.70;;
26474;SDS011;14161;52.270;10.334;2023-11-22T05:28:37;2.10;;;1.40;;
26474;SDS011;14161;52.270;10.334;2023-11-22T05:31:02;5.47;;;2.47;;
26474;SDS011;14161;52.270;10.334;2023-11-22T05:33:28;3.00;;;2.08;;
26474;SDS011;14161;52.270;10.334;2023-11-22T05:35:53;3.05;;;1.98;;
26474;SDS011;14161;52.270;10.334;2023-11-22T05:38:19;2.97;;;1.83;;
26474;SDS011;14161;52.270;10.334;2023-11-22T05:40:44;1.85;;;1.25;;
26474;SDS011;14161;52.270;10.334;2023-11-22T05:43:10;2.65;;;1.85;;
26474;SDS011;14161;52.270;10.334;2023-11-22T05:45:36;2.75;;;1.30;;
26474;SDS011;14161;52.270;10.334;2023-11-22T05:48:01;2.00;;;1.50;;
26474;SDS011;14161;52.270;10.334;2023-11-22T05:50:27;3.47;;;1.30;;
26474;SDS011;14161;52.270;10.334;2023-11-22T05:52:52;2.38;;;1.50;;
26474;SDS011;14161;52.270;10.334;2023-11-22T05:55:18;5.80;;;1.20;;
26474;SDS011;14161;52.270;10.334;2023-11-22T05:57:43;1.75;;;1.45;;
26474;SDS011;14161;52.270;10.334;2023-11-22T06:00:09;2.22;;;1.55;;
26474;SDS011;14161;52.270;10.334;2023-11-22T06:02:35;1.85;;;1.50;;
26474;SDS011;14161;52.270;10.334;2023-11-22T06:05:02;2.17;;;1.30;;
26474;SDS011;14161;52.270;10.334;2023-11-22T06:07:28;1.98;;;1.40;;
26474;SDS011;14161;52.270;10.334;2023-11-22T06:09:54;2.05;;;1.33;;
26474;SDS011;14161;52.270;10.334;2023-11-22T06:12:19;2.10;;;1.70;;
26474;SDS011;14161;52.270;10.334;2023-11-22T06:14:46;2.05;;;1.42;;
26474;SDS011;14161;52.270;10.334;2023-11-22T06:17:11;1.60;;;1.40;;
26474;SDS011;14161;52.270;10.334;2023-11-22T06:19:37;2.92;;;1.73;;
26474;SDS011;14161;52.270;10.334;2023-11-22T06:22:03;2.47;;;1.50;;
26474;SDS011;14161;52.270;10.334;2023-11-22T06:24:29;3.22;;;1.60;;
26474;SDS011;14161;52.270;10.334;2023-11-22T06:26:54;1.77;;;1.30;;
26474;SDS011;14161;52.270;10.334;2023-11-22T06:29:20;2.58;;;1.50;;
26474;SDS011;14161;52.270;10.334;2023-11-22T06:31:45;1.92;;;1.40;;
26474;SDS011;14161;52.270;10.334;2023-11-22T06:34:11;1.80;;;1.35;;
26474;SDS011;14161;52.270;10.334;2023-11-22T06:36:37;2.13;;;1.58;;
26474;SDS011;14161;52.270;10.334;2023-11-22T06:39:03;2.13;;;1.30;;
26474;SDS011;14161;52.270;10.334;2023-11-22T06:41:29;2.47;;;1.50;;
26474;SDS011;14161;52.270;10.334;2023-11-22T06:43:55;1.95;;;1.58;;
26474;SDS011;14161;52.270;10.334;2023-11-22T06:46:20;2.13;;;1.88;;
26474;SDS011;14161;52.270;10.334;2023-11-22T06:48:48;2.33;;;1.60;;
26474;SDS011;14161;52.270;10.334;2023-11-22T06:51:14;3.40;;;1.80;;
26474;SDS011;14161;52.270;10.334;2023-11-22T06:53:40;2.65;;;1.77;;
26474;SDS011;14161;52.270;10.334;2023-11-22T06:56:06;2.63;;;1.92;;
26474;SDS011;14161;52.270;10.334;2023-11-22T06:58:31;2.83;;;1.90;;
26474;SDS011;14161;52.270;10.334;2023-11-22T07:00:56;2.17;;;1.67;;
26474;SDS011;14161;52.270;10.334;2023-11-22T07:03:22;3.70;;;1.88;;
26474;SDS011;14161;52.270;10.334;2023-11-22T07:05:47;2.10;;;1.60;;
26474;SDS011;14161;52.270;10.334;2023-11-22T07:08:13;2.60;;;1.98;;
26474;SDS011;14161;52.270;10.334;2023-11-22T07:10:41;3.55;;;2.35;;
26474;SDS011;14161;52.270;10.334;2023-11-22T07:13:07;2.35;;;1.65;;
26474;SDS011;14161;52.270;10.334;2023-11-22T07:15:32;2.20;;;1.60;;
26474;SDS011;14161;52.270;10.334;2023-11-22T07:17:58;2.78;;;1.65;;
26474;SDS011;14161;52.270;10.334;2023-11-22T07:20:24;2.72;;;1.63;;
26474;SDS011;14161;52.270;10.334;2023-11-22T07:22:49;2.38;;;1.70;;
26474;SDS011;14161;52.270;10.334;2023-11-22T07:25:20;2.58;;;1.88;;
26474;SDS011;14161;52.270;10.334;2023-11-22T07:27:49;3.92;;;2.28;;
26474;SDS011;14161;52.270;10.334;2023-11-22T07:30:16;4.65;;;2.40;;
26474;SDS011;14161;52.270;10.334;2023-11-22T07:32:44;3.17;;;2.13;;
26474;SDS011;14161;52.270;10.334;2023-11-22T07:35:10;2.47;;;1.90;;
26474;SDS011;14161;52.270;10.334;2023-11-22T07:37:36;3.33;;;1.70;;
26474;SDS011;14161;52.270;10.334;2023-11-22T07:40:05;2.20;;;1.77;;
26474;SDS011;14161;52.270;10.334;2023-11-22T07:42:33;3.03;;;1.90;;
26474;SDS011;14161;52.270;10.334;2023-11-22T07:44:58;4.93;;;3.05;;
26474;SDS011;14161;52.270;10.334;2023-11-22T07:47:24;4.45;;;3.28;;
26474;SDS011;14161;52.270;10.334;2023-11-22T07:49:52;4.78;;;2.90;;
26474;SDS011;14161;52.270;10.334;2023-11-22T07:52:21;5.80;;;3.05;;
26474;SDS011;14161;52.270;10.334;2023-11-22T07:54:46;4.45;;;2.47;;
26474;SDS011;14161;52.270;10.334;2023-11-22T07:57:13;3.53;;;2.40;;
26474;SDS011;14161;52.270;10.334;2023-11-22T07:59:38;4.30;;;3.05;;
26474;SDS011;14161;52.270;10.334;2023-11-22T08:02:04;3.28;;;2.80;;
26474;SDS011;14161;52.270;10.334;2023-11-22T08:04:36;4.22;;;2.70;;
26474;SDS011;14161;52.270;10.334;2023-11-22T08:07:01;3.45;;;2.63;;
26474;SDS011;14161;52.270;10.334;2023-11-22T08:09:27;4.05;;;2.88;;
26474;SDS011;14161;52.270;10.334;2023-11-22T08:11:58;4.22;;;2.97;;
26474;SDS011;14161;52.270;10.334;2023-11-22T08:14:26;4.38;;;2.75;;
26474;SDS011;14161;52.270;10.334;2023-11-22T08:16:53;3.70;;;2.88;;
26474;SDS011;14161;52.270;10.334;2023-11-22T08:19:21;3.60;;;2.60;;
26474;SDS011;14161;52.270;10.334;2023-11-22T08:21:49;6.28;;;2.83;;
26474;SDS011;14161;52.270;10.334;2023-11-22T08:24:14;3.65;;;2.53;;
26474;SDS011;14161;52.270;10.334;2023-11-22T08:26:40;3.63;;;2.72;;
26474;SDS011;14161;52.270;10.334;2023-11-22T08:29:05;3.75;;;2.90;;
26474;SDS011;14161;52.270;10.334;2023-11-22T08:31:32;5.57;;;3.10;;
26474;SDS011;14161;52.270;10.334;2023-11-22T08:33:59;4.63;;;3.08;;
26474;SDS011;14161;52.270;10.334;2023-11-22T08:36:25;5.80;;;3.20;;
26474;SDS011;14161;52.270;10.334;2023-11-22T08:38:53;4.88;;;3.05;;
26474;SDS011;14161;52.270;10.334;2023-11-22T08:41:20;5.45;;;3.40;;
26474;SDS011;14161;52.270;10.334;2023-11-22T08:43:46;5.25;;;3.25;;
26474;SDS011;14161;52.270;10.334;2023-11-22T08:46:15;4.95;;;3.45;;
26474;SDS011;14161;52.270;10.334;2023-11-22T08:48:41;4.97;;;3.15;;
26474;SDS011;14161;52.270;10.334;2023-11-22T08:51:06;6.40;;;3.60;;
26474;SDS011;14161;52.270;10.334;2023-11-22T08:53:32;4.25;;;3.05;;
26474;SDS011;14161;52.270;10.334;2023-11-22T08:55:58;3.72;;;2.60;;
26474;SDS011;14161;52.270;10.334;2023-11-22T08:58:24;4.40;;;3.20;;
26474;SDS011;14161;52.270;10.334;2023-11-22T09:00:49;5.63;;;3.55;;
26474;SDS011;14161;52.270;10.334;2023-11-22T09:03:15;4.53;;;3.28;;
26474;SDS011;14161;52.270;10.334;2023-11-22T09:05:45;5.03;;;3.00;;
26474;SDS011;14161;52.270;10.334;2023-11-22T09:08:11;5.03;;;3.20;;
26474;SDS011;14161;52.270;10.334;2023-11-22T09:10:40;4.75;;;3.35;;
26474;SDS011;14161;52.270;10.334;2023-11-22T09:13:06;4.00;;;2.80;;
26474;SDS011;14161;52.270;10.334;2023-11-22T09:15:32;4.88;;;3.30;;
26474;SDS011;14161;52.270;10.334;2023-11-22T09:17:59;5.70;;;3.42;;
26474;SDS011;14161;52.270;10.334;2023-11-22T09:20:24;4.68;;;3.33;;
26474;SDS011;14161;52.270;10.334;2023-11-22T09:22:51;4.38;;;2.95;;
26474;SDS011;14161;52.270;10.334;2023-11-22T09:25:19;6.13;;;3.42;;
26474;SDS011;14161;52.270;10.334;2023-11-22T09:27:46;4.95;;;3.20;;
26474;SDS011;14161;52.270;10.334;2023-11-22T09:30:14;6.15;;;3.40;;
26474;SDS011;14161;52.270;10.334;2023-11-22T09:32:45;4.75;;;3.22;;
26474;SDS011;14161;52.270;10.334;2023-11-22T09:35:14;7.53;;;4.22;;
26474;SDS011;14161;52.270;10.334;2023-11-22T09:37:40;6.03;;;3.70;;
26474;SDS011;14161;52.270;10.334;2023-11-22T09:40:10;3.88;;;2.83;;
26474;SDS011;14161;52.270;10.334;2023-11-22T09:42:37;5.40;;;3.47;;
26474;SDS011;14161;52.270;10.334;2023-11-22T09:45:02;4.50;;;3.33;;
26474;SDS011;14161;52.270;10.334;2023-11-22T09:47:29;5.82;;;3.78;;
26474;SDS011;14161;52.270;10.334;2023-11-22T09:49:57;4.70;;;3.45;;
26474;SDS011;14161;52.270;10.334;2023-11-22T09:52:25;6.18;;;3.65;;
26474;SDS011;14161;52.270;10.334;2023-11-22T09:54:52;5.93;;;3.70;;
26474;SDS011;14161;52.270;10.334;2023-11-22T09:57:18;4.50;;;3.13;;
26474;SDS011;14161;52.270;10.334;2023-11-22T09:59:45;7.35;;;3.85;;
26474;SDS011;14161;52.270;10.334;2023-11-22T10:02:11;4.60;;;3.25;;
26474;SDS011;14161;52.270;10.334;2023-11-22T10:04:37;4.97;;;3.55;;
26474;SDS011;14161;52.270;10.334;2023-11-22T10:07:03;5.28;;;3.40;;
26474;SDS011;14161;52.270;10.334;2023-11-22T10:09:29;7.47;;;3.80;;
26474;SDS011;14161;52.270;10.334;2023-11-22T10:11:58;5.97;;;3.92;;
26474;SDS011;14161;52.270;10.334;2023-11-22T10:14:26;5.90;;;3.70;;
26474;SDS011;14161;52.270;10.334;2023-11-22T10:17:01;5.15;;;3.78;;
26474;SDS011;14161;52.270;10.334;2023-11-22T10:19:27;4.97;;;3.45;;
26474;SDS011;14161;52.270;10.334;2023-11-22T10:22:04;5.00;;;3.55;;
26474;SDS011;14161;52.270;10.334;2023-11-22T10:24:31;8.38;;;3.70;;
26474;SDS011;14161;52.270;10.334;2023-11-22T10:27:03;5.35;;;3.67;;
26474;SDS011;14161;52.270;10.334;2023-11-22T10:29:29;8.07;;;3.10;;
26474;SDS011;14161;52.270;10.334;2023-11-22T10:31:54;7.82;;;3.78;;
26474;SDS011;14161;52.270;10.334;2023-11-22T10:34:21;6.07;;;4.03;;
26474;SDS011;14161;52.270;10.334;2023-11-22T10:36:47;8.13;;;4.28;;
26474;SDS011;14161;52.270;10.334;2023-11-22T10:39:13;5.63;;;3.85;;
26474;SDS011;14161;52.270;10.334;2023-11-22T10:41:41;6.03;;;3.63;;
26474;SDS011;14161;52.270;10.334;2023-11-22T10:44:08;5.63;;;3.60;;
26474;SDS011;14161;52.270;10.334;2023-11-22T10:46:34;6.38;;;4.22;;
26474;SDS011;14161;52.270;10.334;2023-11-22T10:49:00;7.07;;;3.60;;
26474;SDS011;14161;52.270;10.334;2023-11-22T10:51:30;6.80;;;3.75;;
26474;SDS011;14161;52.270;10.334;2023-11-22T10:53:56;9.68;;;4.20;;
26474;SDS011;14161;52.270;10.334;2023-11-22T10:56:23;6.45;;;4.10;;
26474;SDS011;14161;52.270;10.334;2023-11-22T10:58:52;6.03;;;4.00;;
26474;SDS011;14161;52.270;10.334;2023-11-22T11:01:21;5.82;;;3.88;;
26474;SDS011;14161;52.270;10.334;2023-11-22T11:09:06;5.45;;;3.70;;
26474;SDS011;14161;52.270;10.334;2023-11-22T11:11:34;5.00;;;3.38;;
26474;SDS011;14161;52.270;10.334;2023-11-22T11:14:00;10.18;;;3.72;;
26474;SDS011;14161;52.270;10.334;2023-11-22T11:16:27;6.30;;;4.22;;
26474;SDS011;14161;52.270;10.334;2023-11-22T11:18:56;6.93;;;4.22;;
26474;SDS011;14161;52.270;10.334;2023-11-22T11:21:21;4.93;;;3.88;;
26474;SDS011;14161;52.270;10.334;2023-11-22T11:23:47;4.80;;;3.47;;
26474;SDS011;14161;52.270;10.334;2023-11-22T11:26:18;4.78;;;3.50;;
26474;SDS011;14161;52.270;10.334;2023-11-22T11:28:47;4.57;;;3.35;;
26474;SDS011;14161;52.270;10.334;2023-11-22T11:31:14;5.18;;;3.65;;
26474;SDS011;14161;52.270;10.334;2023-11-22T11:33:52;7.57;;;3.70;;
26474;SDS011;14161;52.270;10.334;2023-11-22T11:36:25;5.07;;;3.42;;
26474;SDS011;14161;52.270;10.334;2023-11-22T11:38:57;5.85;;;3.60;;
26474;SDS011;14161;52.270;10.334;2023-11-22T11:41:26;7.05;;;4.65;;
26474;SDS011;14161;52.270;10.334;2023-11-22T11:43:53;5.35;;;3.83;;
26474;SDS011;14161;52.270;10.334;2023-11-22T11:46:18;6.05;;;4.05;;
26474;SDS011;14161;52.270;10.334;2023-11-22T11:48:45;4.93;;;3.63;;
26474;SDS011;14161;52.270;10.334;2023-11-22T11:51:13;6.15;;;3.58;;
26474;SDS011;14161;52.270;10.334;2023-11-22T11:53:40;6.13;;;3.88;;
26474;SDS011;14161;52.270;10.334;2023-11-22T11:56:05;5.78;;;3.83;;
26474;SDS011;14161;52.270;10.334;2023-11-22T11:58:32;5.47;;;4.07;;
26474;SDS011;14161;52.270;10.334;2023-11-22T12:00:57;5.45;;;4.00;;
26474;SDS011;14161;52.270;10.334;2023-11-22T12:03:23;5.18;;;3.63;;
26474;SDS011;14161;52.270;10.334;2023-11-22T12:05:49;4.40;;;3.30;;
26474;SDS011;14161;52.270;10.334;2023-11-22T12:08:14;5.38;;;3.53;;
26474;SDS011;14161;52.270;10.334;2023-11-22T12:10:44;5.63;;;3.67;;
26474;SDS011;14161;52.270;10.334;2023-11-22T12:13:16;6.32;;;3.70;;
26474;SDS011;14161;52.270;10.334;2023-11-22T12:15:43;5.70;;;3.50;;
26474;SDS011;14161;52.270;10.334;2023-11-22T12:18:08;5.65;;;3.90;;
26474;SDS011;14161;52.270;10.334;2023-11-22T12:20:34;6.50;;;4.32;;
26474;SDS011;14161;52.270;10.334;2023-11-22T12:23:00;7.20;;;4.40;;
26474;SDS011;14161;52.270;10.334;2023-11-22T12:25:27;5.97;;;4.10;;
26474;SDS011;14161;52.270;10.334;2023-11-22T12:27:55;6.60;;;4.28;;
26474;SDS011;14161;52.270;10.334;2023-11-22T12:30:28;8.50;;;4.47;;
26474;SDS011;14161;52.270;10.334;2023-11-22T12:32:55;6.75;;;4.03;;
26474;SDS011;14161;52.270;10.334;2023-11-22T12:35:21;6.78;;;4.03;;
26474;SDS011;14161;52.270;10.334;2023-11-22T12:37:47;7.07;;;4.50;;
26474;SDS011;14161;52.270;10.334;2023-11-22T12:40:13;6.15;;;4.40;;
26474;SDS011;14161;52.270;10.334;2023-11-22T12:42:46;7.93;;;4.47;;
26474;SDS011;14161;52.270;10.334;2023-11-22T12:45:22;6.75;;;4.22;;
26474;SDS011;14161;52.270;10.334;2023-11-22T12:47:52;5.20;;;3.80;;
26474;SDS011;14161;52.270;10.334;2023-11-22T12:52:56;8.40;;;4.63;;
26474;SDS011;14161;52.270;10.334;2023-11-22T12:55:25;7.80;;;4.82;;
26474;SDS011;14161;52.270;10.334;2023-11-22T12:58:00;7.22;;;4.90;;
26474;SDS011;14161;52.270;10.334;2023-11-22T13:00:28;7.38;;;5.07;;
26474;SDS011;14161;52.270;10.334;2023-11-22T13:02:58;5.63;;;4.32;;
26474;SDS011;14161;52.270;10.334;2023-11-22T13:05:23;8.82;;;4.97;;
26474;SDS011;14161;52.270;10.334;2023-11-22T13:07:49;10.65;;;4.38;;
26474;SDS011;14161;52.270;10.334;2023-11-22T13:10:15;6.88;;;4.53;;
26474;SDS011;14161;52.270;10.334;2023-11-22T13:12:42;9.18;;;3.95;;
26474;SDS011;14161;52.270;10.334;2023-11-22T13:15:11;8.13;;;4.72;;
26474;SDS011;14161;52.270;10.334;2023-11-22T13:17:37;6.88;;;4.60;;
26474;SDS011;14161;52.270;10.334;2023-11-22T13:20:07;8.32;;;4.93;;
26474;SDS011;14161;52.270;10.334;2023-11-22T13:22:40;8.32;;;5.20;;
26474;SDS011;14161;52.270;10.334;2023-11-22T13:25:09;7.65;;;5.10;;
26474;SDS011;14161;52.270;10.334;2023-11-22T13:27:39;8.90;;;5.43;;
26474;SDS011;14161;52.270;10.334;2023-11-22T13:30:06;5.63;;;4.68;;
26474;SDS011;14161;52.270;10.334;2023-11-22T13:32:31;6.65;;;4.70;;
26474;SDS011;14161;52.270;10.334;2023-11-22T13:34:57;7.22;;;5.30;;
26474;SDS011;14161;52.270;10.334;2023-11-22T13:37:26;7.65;;;4.60;;
26474;SDS011;14161;52.270;10.334;2023-11-22T13:39:54;6.88;;;4.63;;
26474;SDS011;14161;52.270;10.334;2023-11-22T13:42:20;6.82;;;5.20;;
26474;SDS011;14161;52.270;10.334;2023-11-22T13:44:45;6.22;;;4.60;;
26474;SDS011;14161;52.270;10.334;2023-11-22T13:47:12;8.30;;;5.03;;
26474;SDS011;14161;52.270;10.334;2023-11-22T13:49:39;6.60;;;4.90;;
26474;SDS011;14161;52.270;10.334;2023-11-22T13:52:05;8.25;;;5.32;;
26474;SDS011;14161;52.270;10.334;2023-11-22T13:54:31;7.38;;;5.43;;
26474;SDS011;14161;52.270;10.334;2023-11-22T13:56:59;7.10;;;4.90;;
26474;SDS011;14161;52.270;10.334;2023-11-22T13:59:24;6.55;;;4.55;;
26474;SDS011;14161;52.270;10.334;2023-11-22T14:01:51;6.18;;;4.55;;
26474;SDS011;14161;52.270;10.334;2023-11-22T14:04:16;6.22;;;4.78;;
26474;SDS011;14161;52.270;10.334;2023-11-22T14:06:42;7.45;;;5.15;;
26474;SDS011;14161;52.270;10.334;2023-11-22T14:09:07;7.57;;;5.25;;
26474;SDS011;14161;52.270;10.334;2023-11-22T14:11:33;8.88;;;4.93;;
26474;SDS011;14161;52.270;10.334;2023-11-22T14:14:01;7.10;;;4.70;;
26474;SDS011;14161;52.270;10.334;2023-11-22T14:16:28;6.57;;;4.70;;
26474;SDS011;14161;52.270;10.334;2023-11-22T14:18:56;7.80;;;5.28;;
26474;SDS011;14161;52.270;10.334;2023-11-22T14:21:22;10.63;;;6.80;;
26474;SDS011;14161;52.270;10.334;2023-11-22T14:23:50;8.80;;;6.20;;
26474;SDS011;14161;52.270;10.334;2023-11-22T14:26:16;7.10;;;5.25;;
26474;SDS011;14161;52.270;10.334;2023-11-22T14:28:41;5.93;;;4.45;;
26474;SDS011;14161;52.270;10.334;2023-11-22T14:31:08;6.22;;;4.50;;
26474;SDS011;14161;52.270;10.334;2023-11-22T14:33:34;8.63;;;4.35;;
26474;SDS011;14161;52.270;10.334;2023-11-22T14:36:00;7.13;;;4.90;;
26474;SDS011;14161;52.270;10.334;2023-11-22T14:38:26;10.18;;;4.63;;